Time;durP1;ratioP1;P1;durP2;ratioP2;P2;SDS_P1;SDS_P2;PMS_P1;PMS_P2;Temp;Humidity;BMP_temperature;BMP_pressure;BME280_temperature;BME280_humidity;BME280_pressure;Samples;Min_cycle;Max_cycle;Signal;HPM_P1;HPM_P2
2024/01/08 04:01:08;;;;;;;14.65;6.60;;;-0.60;99.90;;;;;;5601688;23;20074;-76
2024/01/08 04:03:34;;;;;;;14.05;6.53;;;-0.60;99.90;;;;;;4938583;29;20384;-74
2024/01/08 04:05:59;;;;;;;17.50;6.82;;;-0.60;99.90;;;;;;4955910;29;20050;-76
2024/01/08 04:08:25;;;;;;;14.30;6.95;;;-0.60;99.90;;;;;;4938753;29;20039;-75
2024/01/08 04:10:51;;;;;;;13.43;6.82;;;-0.60;99.90;;;;;;4932891;29;20123;-75
2024/01/08 04:13:16;;;;;;;14.75;7.32;;;-0.60;99.90;;;;;;4936818;29;20035;-73
2024/01/08 04:15:42;;;;;;;11.88;6.15;;;-0.60;99.90;;;;;;4919543;29;20051;-75
2024/01/08 04:18:08;;;;;;;14.80;6.78;;;-0.60;99.90;;;;;;4936570;29;20121;-74
2024/01/08 04:20:33;;;;;;;13.20;5.90;;;-0.60;99.90;;;;;;4919219;29;20043;-74
2024/01/08 04:22:59;;;;;;;15.00;6.30;;;-0.60;99.90;;;;;;4919310;29;20403;-75
2024/01/08 04:25:25;;;;;;;11.98;6.38;;;-0.60;99.90;;;;;;4903824;29;20039;-75
2024/01/08 04:27:50;;;;;;;13.82;6.53;;;-0.60;99.90;;;;;;4936503;29;20049;-75
2024/01/08 04:30:16;;;;;;;13.00;5.80;;;-0.60;99.90;;;;;;4936178;29;20040;-75
2024/01/08 04:32:41;;;;;;;12.13;5.72;;;-0.70;99.90;;;;;;4904064;29;20495;-74
2024/01/08 04:35:07;;;;;;;12.75;5.75;;;-0.70;99.90;;;;;;4919126;29;20086;-75
2024/01/08 04:37:33;;;;;;;14.43;5.97;;;-0.70;99.90;;;;;;4919331;29;20086;-75
2024/01/08 04:39:59;;;;;;;13.20;6.43;;;-0.70;99.90;;;;;;4919513;29;20415;-75
2024/01/08 04:42:25;;;;;;;14.50;6.25;;;-0.70;99.90;;;;;;4936228;29;20103;-75
2024/01/08 04:44:50;;;;;;;14.75;6.57;;;-0.70;99.90;;;;;;4936587;29;20440;-75
2024/01/08 04:47:16;;;;;;;10.73;5.72;;;-0.70;99.90;;;;;;4936305;29;20045;-75
2024/01/08 04:49:42;;;;;;;10.02;4.90;;;-0.70;99.90;;;;;;4919233;29;20051;-75
2024/01/08 04:52:07;;;;;;;11.30;5.70;;;-0.70;99.90;;;;;;4903354;29;20498;-74
2024/01/08 04:54:33;;;;;;;12.95;6.47;;;-0.80;99.90;;;;;;4936139;29;20052;-75
2024/01/08 04:56:58;;;;;;;15.40;5.82;;;-0.80;99.90;;;;;;4918973;29;20046;-74
2024/01/08 04:59:24;;;;;;;11.07;5.35;;;-0.80;99.90;;;;;;4918970;29;20492;-76
2024/01/08 05:01:51;;;;;;;11.98;4.90;;;-0.90;99.90;;;;;;4939721;29;20040;-75
2024/01/08 05:04:17;;;;;;;11.13;5.38;;;-0.90;99.90;;;;;;4922741;29;20053;-75
2024/01/08 05:06:43;;;;;;;11.10;5.03;;;-0.90;99.90;;;;;;4922690;29;20130;-75
2024/01/08 05:09:09;;;;;;;12.52;5.68;;;-0.90;99.90;;;;;;4939847;29;20087;-76
2024/01/08 05:11:35;;;;;;;12.40;5.30;;;-1.00;99.90;;;;;;4922878;29;20376;-75
2024/01/08 05:14:00;;;;;;;11.63;5.15;;;-1.00;99.90;;;;;;4939973;29;20031;-76
2024/01/08 05:16:26;;;;;;;9.80;5.18;;;-1.00;99.90;;;;;;4906881;29;20503;-74
2024/01/08 05:18:52;;;;;;;9.88;4.78;;;-1.10;99.90;;;;;;4939846;29;20040;-74
2024/01/08 05:21:17;;;;;;;14.13;5.20;;;-1.10;99.90;;;;;;4922307;29;20116;-75
2024/01/08 05:23:43;;;;;;;11.82;5.32;;;-1.10;99.90;;;;;;4939712;29;20039;-75
2024/01/08 05:26:09;;;;;;;12.95;5.50;;;-1.20;99.90;;;;;;4906326;29;20039;-75
2024/01/08 05:28:34;;;;;;;8.68;4.85;;;-1.20;99.90;;;;;;4939625;29;20149;-75
2024/01/08 05:31:00;;;;;;;10.20;5.18;;;-1.20;99.90;;;;;;4922439;29;20087;-74
2024/01/08 05:33:26;;;;;;;10.30;4.72;;;-1.30;99.90;;;;;;4922290;29;20039;-75
2024/01/08 05:35:51;;;;;;;13.88;4.72;;;-1.30;99.90;;;;;;4922154;29;20126;-75
2024/01/08 05:38:17;;;;;;;11.82;4.93;;;-1.30;99.90;;;;;;4939502;29;20047;-74
2024/01/08 05:40:43;;;;;;;11.00;4.93;;;-1.30;99.90;;;;;;4906328;29;20044;-75
2024/01/08 05:43:08;;;;;;;12.80;5.03;;;-1.30;99.90;;;;;;4922306;29;20036;-77
2024/01/08 05:45:34;;;;;;;11.55;5.10;;;-1.40;99.90;;;;;;4938998;29;20039;-75
2024/01/08 05:48:00;;;;;;;10.82;4.88;;;-1.40;99.90;;;;;;4938977;29;20054;-75
2024/01/08 05:50:27;;;;;;;11.52;4.57;;;-1.40;99.90;;;;;;4921511;29;20043;-75
2024/01/08 05:52:56;;;;;;;13.57;5.65;;;-1.40;99.90;;;;;;4939179;29;20051;-75
2024/01/08 05:55:23;;;;;;;10.50;4.78;;;-1.40;99.90;;;;;;4921717;29;20094;-76
2024/01/08 05:57:48;;;;;;;10.38;4.78;;;-1.50;99.90;;;;;;4938663;29;20488;-75
2024/01/08 06:00:15;;;;;;;8.15;4.18;;;-1.50;99.90;;;;;;4922100;29;20038;-75
2024/01/08 06:02:44;;;;;;;9.95;4.32;;;-1.60;99.90;;;;;;4921641;29;20047;-75
2024/01/08 06:05:10;;;;;;;7.97;4.10;;;-1.60;99.90;;;;;;4938705;29;20032;-75
2024/01/08 06:07:36;;;;;;;7.50;4.00;;;-1.60;99.90;;;;;;4938603;29;20102;-75
2024/01/08 06:10:02;;;;;;;11.05;4.43;;;-1.60;99.90;;;;;;4921841;29;20130;-76
2024/01/08 06:17:04;;;;;;;9.32;4.55;;;-1.60;99.90;;;;;;4908076;28;20130;-75
2024/01/08 06:20:22;;;;;;;;;;;;;;;;;;;;;
2024/01/08 06:22:40;;;;;;;8.85;4.50;;;-1.60;99.90;;;;;;4991355;23;20109;-76
2024/01/08 06:25:06;;;;;;;11.45;4.82;;;-1.60;99.90;;;;;;4959681;28;20194;-75
2024/01/08 06:27:31;;;;;;;6.97;3.65;;;-1.60;99.90;;;;;;4959552;28;20058;-75
2024/01/08 06:29:57;;;;;;;6.97;3.70;;;-1.60;99.90;;;;;;4960002;28;20082;-75
2024/01/08 06:32:24;;;;;;;8.02;4.10;;;-1.60;99.90;;;;;;4976439;28;20042;-77
2024/01/08 06:34:50;;;;;;;12.82;4.50;;;-1.60;99.90;;;;;;4959900;28;20043;-75
2024/01/08 06:37:16;;;;;;;9.38;3.95;;;-1.50;99.90;;;;;;4959039;28;20128;-75
2024/01/08 06:39:42;;;;;;;9.00;4.15;;;-1.50;99.90;;;;;;4976839;28;20394;-75
2024/01/08 06:42:08;;;;;;;13.25;4.75;;;-1.50;99.90;;;;;;4976587;28;20050;-76
2024/01/08 06:44:34;;;;;;;7.63;3.83;;;-1.40;99.90;;;;;;4976683;28;20437;-74
2024/01/08 06:46:59;;;;;;;9.60;4.47;;;-1.40;99.90;;;;;;4976313;28;20515;-75
2024/01/08 06:49:25;;;;;;;10.02;4.35;;;-1.40;99.90;;;;;;4958997;28;20055;-76
2024/01/08 06:51:51;;;;;;;9.68;4.28;;;-1.30;99.90;;;;;;4958649;28;20398;-75
2024/01/08 06:54:16;;;;;;;9.55;4.13;;;-1.30;99.90;;;;;;4958739;28;20053;-76
2024/01/08 06:56:42;;;;;;;11.80;4.50;;;-1.20;99.90;;;;;;4959352;28;20039;-75
2024/01/08 06:59:07;;;;;;;8.80;3.90;;;-1.20;99.90;;;;;;4976392;28;20035;-76
2024/01/08 07:01:33;;;;;;;7.70;4.38;;;-1.20;99.90;;;;;;4958659;28;20047;-75
2024/01/08 07:03:59;;;;;;;9.50;4.20;;;-1.20;99.90;;;;;;4976043;28;20035;-74
2024/01/08 07:06:24;;;;;;;10.27;4.07;;;-1.10;99.90;;;;;;4976278;28;20046;-76
2024/01/08 07:08:50;;;;;;;9.00;4.15;;;-1.10;99.90;;;;;;4975953;28;20094;-75
2024/01/08 07:11:23;;;;;;;7.90;3.95;;;-1.10;99.90;;;;;;4975624;28;20125;-76
2024/01/08 07:13:49;;;;;;;9.50;4.38;;;-1.10;99.90;;;;;;4975860;28;20451;-75
2024/01/08 07:16:15;;;;;;;11.18;4.47;;;-1.10;99.90;;;;;;4958467;28;20199;-76
2024/01/08 07:18:41;;;;;;;9.95;4.22;;;-1.00;99.90;;;;;;4976046;28;20054;-75
2024/01/08 07:21:07;;;;;;;7.78;4.07;;;-1.00;99.90;;;;;;4958429;28;20047;-76
2024/01/08 07:23:35;;;;;;;11.18;4.43;;;-1.00;99.90;;;;;;4957855;28;20051;-75
2024/01/08 07:26:01;;;;;;;10.13;4.60;;;-1.00;99.90;;;;;;4958329;28;20050;-75
2024/01/08 07:28:28;;;;;;;9.65;4.78;;;-1.00;99.90;;;;;;4958533;28;20046;-77
2024/01/08 07:30:54;;;;;;;11.15;5.00;;;-1.00;99.90;;;;;;4975608;28;20046;-76
2024/01/08 07:33:21;;;;;;;10.80;4.65;;;-0.90;99.90;;;;;;4958437;28;20551;-75
2024/01/08 07:35:47;;;;;;;13.02;4.78;;;-1.00;99.90;;;;;;4975756;28;20043;-75
2024/01/08 07:38:12;;;;;;;9.95;4.20;;;-0.90;99.90;;;;;;4958372;28;20183;-76
2024/01/08 07:40:38;;;;;;;10.05;4.30;;;-0.90;99.90;;;;;;4975447;28;20534;-75
2024/01/08 07:43:04;;;;;;;8.02;4.50;;;-0.90;99.90;;;;;;4975574;28;20124;-74
2024/01/08 07:45:29;;;;;;;11.75;4.88;;;-0.80;99.90;;;;;;4975536;28;20030;-76
2024/01/08 07:47:56;;;;;;;10.68;4.53;;;-0.90;99.90;;;;;;4958477;28;20055;-75
2024/01/08 07:50:22;;;;;;;9.98;4.55;;;-0.90;99.90;;;;;;4975435;28;20052;-75
2024/01/08 07:52:48;;;;;;;14.35;4.43;;;-0.90;99.90;;;;;;4958695;28;20034;-75
2024/01/08 07:55:14;;;;;;;10.05;4.53;;;-0.90;99.90;;;;;;4957915;28;20050;-76
2024/01/08 07:57:39;;;;;;;10.50;5.28;;;-0.80;99.90;;;;;;4958051;28;20069;-75
2024/01/08 08:00:06;;;;;;;11.02;4.57;;;-0.80;99.90;;;;;;4958565;28;20053;-76
2024/01/08 08:02:33;;;;;;;11.05;4.80;;;-0.80;99.90;;;;;;4957682;28;20122;-75
2024/01/08 08:04:58;;;;;;;8.35;4.30;;;-0.80;99.90;;;;;;4957394;28;20566;-75
2024/01/08 08:07:24;;;;;;;9.10;4.35;;;-0.80;99.90;;;;;;4957826;28;20126;-75
2024/01/08 08:09:50;;;;;;;13.27;4.32;;;-0.80;99.90;;;;;;4957762;28;20504;-75
2024/01/08 08:12:17;;;;;;;10.07;4.40;;;-0.70;99.90;;;;;;4974892;28;20118;-75
2024/01/08 08:14:43;;;;;;;10.73;4.40;;;-0.70;99.90;;;;;;4957673;28;20045;-74
2024/01/08 08:17:09;;;;;;;8.95;4.55;;;-0.70;99.90;;;;;;4957616;28;20486;-77
2024/01/08 08:19:36;;;;;;;10.02;4.63;;;-0.70;99.90;;;;;;4957683;28;20046;-75
2024/01/08 08:22:02;;;;;;;9.73;4.40;;;-0.70;99.90;;;;;;4941489;28;20038;-75
2024/01/08 08:24:28;;;;;;;10.02;4.30;;;-0.70;99.90;;;;;;4957638;28;20051;-74
2024/01/08 08:26:54;;;;;;;9.32;4.20;;;-0.70;99.90;;;;;;4941525;28;20101;-74
2024/01/08 08:29:20;;;;;;;12.10;4.82;;;-0.60;99.90;;;;;;4942004;28;20078;-75
2024/01/08 08:31:46;;;;;;;9.68;4.40;;;-0.60;99.90;;;;;;4974649;28;20497;-75
2024/01/08 08:34:11;;;;;;;10.38;4.43;;;-0.60;99.90;;;;;;4957131;28;20495;-74
2024/01/08 08:36:41;;;;;;;6.47;3.60;;;-0.60;99.90;;;;;;4957511;28;20035;-75
2024/01/08 08:39:07;;;;;;;11.18;4.90;;;-0.60;99.90;;;;;;4957833;28;20438;-75
2024/01/08 08:41:32;;;;;;;8.85;4.00;;;-0.50;99.90;;;;;;4941087;28;20070;-76
2024/01/08 08:43:58;;;;;;;10.60;4.32;;;-0.50;99.90;;;;;;4941409;28;20398;-75
2024/01/08 08:46:24;;;;;;;7.15;3.55;;;-0.50;99.90;;;;;;4957319;28;20042;-74
2024/01/08 08:48:49;;;;;;;9.05;4.15;;;-0.40;99.90;;;;;;4974505;28;20125;-75
2024/01/08 08:51:15;;;;;;;8.00;3.67;;;-0.40;99.90;;;;;;4956845;28;20083;-74
2024/01/08 08:53:41;;;;;;;10.77;4.05;;;-0.50;99.90;;;;;;4974473;28;20130;-75
2024/01/08 08:56:08;;;;;;;9.93;3.80;;;-0.40;99.90;;;;;;4956777;28;20078;-74
2024/01/08 08:58:34;;;;;;;10.38;4.30;;;-0.40;99.90;;;;;;4973971;28;20113;-75
2024/01/08 09:01:00;;;;;;;7.93;3.85;;;-0.40;99.90;;;;;;4956701;28;20130;-76
2024/01/08 09:03:25;;;;;;;12.52;4.63;;;-0.40;99.90;;;;;;4974296;28;20516;-73
2024/01/08 09:05:52;;;;;;;8.23;4.00;;;-0.30;99.90;;;;;;4974298;28;20047;-74
2024/01/08 09:08:18;;;;;;;9.77;4.07;;;-0.30;99.90;;;;;;4957215;28;20046;-75
2024/01/08 09:10:43;;;;;;;9.02;3.63;;;-0.30;99.90;;;;;;4956594;28;20049;-74
2024/01/08 09:13:10;;;;;;;10.05;4.13;;;-0.20;99.90;;;;;;4956937;28;20046;-76
2024/01/08 09:15:35;;;;;;;9.43;4.30;;;-0.20;99.90;;;;;;4973854;28;20387;-75
2024/01/08 09:18:01;;;;;;;8.07;3.97;;;-0.20;99.90;;;;;;4956557;28;20047;-74
2024/01/08 09:20:27;;;;;;;10.95;4.57;;;-0.10;99.90;;;;;;4974112;28;20043;-74
2024/01/08 09:22:52;;;;;;;6.43;3.35;;;-0.10;99.90;;;;;;4956407;28;20047;-74
2024/01/08 09:25:19;;;;;;;9.20;4.07;;;-0.10;99.90;;;;;;4956611;28;20069;-75
2024/01/08 09:27:48;;;;;;;8.85;3.95;;;-0.10;99.90;;;;;;4973861;28;20494;-75
2024/01/08 09:30:13;;;;;;;7.78;3.92;;;-0.10;99.90;;;;;;4973945;28;20042;-74
2024/01/08 09:32:39;;;;;;;9.25;3.80;;;-0.10;99.90;;;;;;4956578;28;20061;-75
2024/01/08 09:35:05;;;;;;;8.43;3.53;;;-0.10;99.90;;;;;;4956437;28;20501;-75
2024/01/08 09:37:31;;;;;;;8.63;3.70;;;-0.10;99.90;;;;;;4956429;28;20568;-75
2024/01/08 09:39:56;;;;;;;8.82;3.88;;;0.00;99.90;;;;;;4956756;28;20082;-75
2024/01/08 09:42:27;;;;;;;7.38;3.13;;;0.00;99.90;;;;;;4956872;28;20482;-74
2024/01/08 09:44:54;;;;;;;7.75;3.15;;;0.00;99.90;;;;;;4956614;28;20042;-75
2024/01/08 09:47:20;;;;;;;9.05;4.07;;;0.10;99.90;;;;;;4976838;28;20039;-75
2024/01/08 09:49:47;;;;;;;9.50;3.25;;;0.10;99.90;;;;;;4959953;28;20113;-76
2024/01/08 09:52:14;;;;;;;6.13;3.33;;;0.10;99.90;;;;;;4977585;28;20125;-76
2024/01/08 09:54:42;;;;;;;7.10;3.22;;;0.10;99.90;;;;;;4977661;28;20074;-77
2024/01/08 09:57:08;;;;;;;8.63;3.15;;;0.10;99.90;;;;;;4975734;28;20043;-76
2024/01/08 09:59:34;;;;;;;10.90;3.72;;;0.00;99.90;;;;;;4941796;28;20754;-76
2024/01/08 10:02:00;;;;;;;7.38;2.88;;;0.00;99.90;;;;;;4957800;28;20122;-77
2024/01/08 10:04:26;;;;;;;9.77;3.53;;;-0.10;99.90;;;;;;4958650;28;20038;-76
2024/01/08 10:07:06;;;;;;;10.05;3.42;;;-0.10;99.90;;;;;;4958661;28;20042;-74
2024/01/08 10:09:31;;;;;;;11.35;3.58;;;-0.10;99.90;;;;;;4958668;28;20139;-76
2024/01/08 10:11:58;;;;;;;8.77;3.60;;;-0.10;99.90;;;;;;4976723;28;20113;-75
2024/01/08 10:14:25;;;;;;;9.07;2.88;;;-0.10;99.90;;;;;;4959968;28;20391;-76
2024/01/08 10:16:51;;;;;;;8.73;3.65;;;0.00;99.90;;;;;;4977056;28;20047;-75
2024/01/08 10:19:18;;;;;;;5.13;3.20;;;0.00;99.90;;;;;;4977178;28;20042;-76
2024/01/08 10:21:45;;;;;;;7.68;3.90;;;0.10;99.90;;;;;;4943215;28;20038;-75
2024/01/08 10:24:10;;;;;;;6.13;2.95;;;0.20;99.90;;;;;;4959378;28;20050;-75
2024/01/08 10:26:41;;;;;;;5.65;2.70;;;0.20;99.90;;;;;;4976627;28;20054;-79
2024/01/08 10:29:13;;;;;;;10.55;3.30;;;0.30;99.90;;;;;;4959309;28;20089;-75
2024/01/08 10:31:39;;;;;;;6.85;3.38;;;0.30;99.90;;;;;;4959237;28;20057;-75
2024/01/08 10:34:05;;;;;;;8.82;3.42;;;0.30;99.90;;;;;;4976580;28;20043;-76
2024/01/08 10:36:32;;;;;;;8.60;3.38;;;0.40;99.90;;;;;;4959115;28;20114;-76
2024/01/08 10:39:02;;;;;;;7.90;3.03;;;0.40;99.90;;;;;;4976980;28;20053;-76
2024/01/08 10:41:27;;;;;;;10.60;3.95;;;0.50;99.90;;;;;;4976617;28;20045;-74
2024/01/08 10:43:53;;;;;;;7.00;3.33;;;0.50;99.90;;;;;;4976374;28;20042;-77
2024/01/08 10:46:22;;;;;;;6.03;3.10;;;0.60;99.90;;;;;;4976712;28;20407;-76
2024/01/08 10:48:50;;;;;;;9.85;3.13;;;0.60;99.90;;;;;;4976277;28;20510;-75
2024/01/08 10:51:17;;;;;;;8.73;3.15;;;0.60;99.90;;;;;;4976410;28;20049;-76
2024/01/08 10:53:47;;;;;;;6.97;3.40;;;0.70;99.90;;;;;;4976400;28;20051;-75
2024/01/08 10:56:20;;;;;;;5.78;2.50;;;0.90;99.90;;;;;;4959037;28;20450;-75
2024/01/08 10:59:03;;;;;;;8.27;3.20;;;0.90;99.90;;;;;;4958730;28;20047;-76
2024/01/08 11:01:30;;;;;;;7.35;3.38;;;0.80;99.90;;;;;;4958433;28;20062;-75
2024/01/08 11:04:01;;;;;;;5.70;2.90;;;0.80;99.90;;;;;;4976195;28;20068;-75
2024/01/08 11:06:28;;;;;;;5.78;3.10;;;0.80;99.90;;;;;;4958779;28;20562;-76
2024/01/08 11:09:00;;;;;;;6.13;2.97;;;0.80;99.90;;;;;;4958466;28;20085;-76
2024/01/08 11:11:26;;;;;;;9.43;3.20;;;0.80;99.90;;;;;;4958775;28;20050;-76
2024/01/08 11:13:52;;;;;;;7.40;3.30;;;0.70;99.90;;;;;;4958577;28;20043;-75
2024/01/08 11:16:29;;;;;;;5.32;2.60;;;0.70;99.90;;;;;;4976482;28;20101;-76
2024/01/08 11:19:19;;;;;;;5.68;2.90;;;0.70;99.90;;;;;;4958428;28;20043;-74
2024/01/08 11:21:48;;;;;;;5.05;2.70;;;0.70;99.90;;;;;;4942458;28;20074;-75
2024/01/08 11:24:14;;;;;;;7.32;3.03;;;0.70;99.90;;;;;;4958583;28;20046;-76
2024/01/08 11:26:44;;;;;;;6.85;3.40;;;0.70;99.90;;;;;;4975520;28;20066;-74
2024/01/08 11:29:11;;;;;;;8.60;3.10;;;0.70;99.90;;;;;;4975776;28;20046;-75
2024/01/08 11:32:02;;;;;;;5.63;2.75;;;0.70;99.90;;;;;;4958073;28;20409;-76
2024/01/08 11:34:49;;;;;;;4.75;2.65;;;0.80;99.90;;;;;;4975407;28;20039;-76
2024/01/08 11:37:34;;;;;;;7.82;3.10;;;0.80;99.90;;;;;;4942029;28;20047;-75
2024/01/08 11:40:20;;;;;;;7.38;3.20;;;0.80;99.90;;;;;;4958038;28;20064;-77
2024/01/08 11:42:49;;;;;;;5.80;2.88;;;0.80;99.90;;;;;;4957551;28;20062;-74
2024/01/08 11:45:16;;;;;;;9.20;3.03;;;0.80;99.90;;;;;;4958313;28;20078;-75
2024/01/08 11:47:43;;;;;;;6.85;3.65;;;0.80;99.90;;;;;;4975487;28;20057;-75
2024/01/08 11:50:09;;;;;;;8.55;3.20;;;0.90;99.90;;;;;;4975492;28;20054;-76
2024/01/08 11:52:39;;;;;;;8.10;3.30;;;0.90;99.90;;;;;;4966250;28;20046;-75
2024/01/08 11:55:09;;;;;;;5.72;3.17;;;0.90;99.90;;;;;;4994920;28;20038;-75
2024/01/08 11:57:36;;;;;;;6.07;2.60;;;0.90;99.90;;;;;;4978528;28;20057;-73
2024/01/08 12:00:11;;;;;;;5.95;2.80;;;0.90;99.90;;;;;;4978390;28;20044;-74
2024/01/08 12:02:39;;;;;;;5.53;3.10;;;1.10;99.90;;;;;;4976995;28;20049;-75
2024/01/08 12:05:05;;;;;;;8.73;2.92;;;1.20;99.90;;;;;;4977046;28;20053;-75
2024/01/08 12:07:32;;;;;;;5.68;2.60;;;1.40;99.90;;;;;;4994361;28;20035;-76
2024/01/08 12:10:04;;;;;;;9.02;3.25;;;1.60;99.90;;;;;;4976242;28;20513;-75
2024/01/08 12:12:30;;;;;;;8.38;3.20;;;1.90;99.90;;;;;;4976654;28;20104;-75
2024/01/08 12:14:55;;;;;;;7.32;3.10;;;1.90;99.90;;;;;;4994461;28;20034;-74
2024/01/08 12:17:22;;;;;;;7.68;3.53;;;1.70;99.90;;;;;;4994365;28;20054;-74
2024/01/08 12:19:55;;;;;;;7.13;4.28;;;1.50;99.90;;;;;;4956885;28;20039;-76
2024/01/08 12:22:22;;;;;;;7.03;2.65;;;1.30;99.90;;;;;;4937969;29;20043;-74
2024/01/08 12:24:58;;;;;;;6.22;2.90;;;1.20;99.90;;;;;;4955324;29;20036;-76
2024/01/08 12:27:31;;;;;;;6.40;3.10;;;1.00;99.90;;;;;;4938025;29;20047;-76
2024/01/08 12:29:57;;;;;;;6.10;2.63;;;1.00;99.90;;;;;;4955496;29;20058;-73
2024/01/08 12:32:24;;;;;;;7.07;3.22;;;0.90;99.90;;;;;;4938253;29;20070;-77
2024/01/08 12:34:50;;;;;;;7.20;2.80;;;0.80;99.90;;;;;;4955455;29;20391;-76
2024/01/08 12:37:17;;;;;;;6.50;2.78;;;0.80;99.90;;;;;;4938003;29;20099;-75
2024/01/08 12:39:44;;;;;;;6.72;3.30;;;1.00;99.90;;;;;;4955092;29;20043;-75
2024/01/08 12:42:21;;;;;;;5.75;2.60;;;1.10;99.90;;;;;;4955197;29;20047;-78
2024/01/08 12:44:48;;;;;;;5.20;3.10;;;1.10;99.90;;;;;;4937874;29;20202;-75
2024/01/08 12:47:13;;;;;;;5.75;3.00;;;1.20;99.90;;;;;;4955259;29;20054;-74
2024/01/08 12:49:40;;;;;;;5.40;2.60;;;1.30;99.90;;;;;;4937778;29;20043;-76
2024/01/08 12:52:06;;;;;;;5.80;3.25;;;1.50;99.90;;;;;;4954887;29;20384;-75
2024/01/08 12:54:39;;;;;;;8.43;2.88;;;1.60;99.90;;;;;;4937677;29;20122;-75
2024/01/08 12:57:05;;;;;;;6.65;2.80;;;1.50;99.90;;;;;;4937661;29;20472;-74
2024/01/08 12:59:35;;;;;;;4.60;2.60;;;1.40;99.90;;;;;;4937709;29;20043;-75
2024/01/08 13:02:01;;;;;;;6.25;2.95;;;1.30;99.90;;;;;;4937595;29;20036;-76
2024/01/08 13:04:27;;;;;;;5.88;3.28;;;1.30;99.90;;;;;;4938238;29;20043;-75
2024/01/08 13:06:53;;;;;;;5.65;3.03;;;1.30;99.90;;;;;;4937530;29;20325;-76
2024/01/08 13:09:18;;;;;;;9.38;3.28;;;1.20;99.90;;;;;;4937845;29;20039;-73
2024/01/08 13:11:44;;;;;;;5.13;2.80;;;1.20;99.90;;;;;;4954913;29;20390;-76
2024/01/08 13:14:17;;;;;;;7.03;3.22;;;1.20;99.90;;;;;;4954768;29;20399;-74
2024/01/08 13:16:47;;;;;;;5.43;2.97;;;1.30;99.90;;;;;;4937519;29;20051;-75
2024/01/08 13:19:12;;;;;;;6.97;3.15;;;1.60;99.90;;;;;;4954923;29;20047;-74
2024/01/08 13:21:43;;;;;;;5.68;2.95;;;1.70;99.90;;;;;;4956456;28;20402;-74
2024/01/08 13:24:10;;;;;;;5.30;2.90;;;2.10;99.90;;;;;;4941337;29;20127;-76
2024/01/08 13:26:36;;;;;;;5.55;3.13;;;2.40;99.90;;;;;;4941237;29;20043;-75
2024/01/08 13:29:03;;;;;;;5.22;2.85;;;2.40;99.90;;;;;;4941196;29;20062;-76
2024/01/08 13:31:30;;;;;;;5.43;2.97;;;2.30;99.90;;;;;;4958623;29;20047;-76
2024/01/08 13:33:55;;;;;;;6.28;3.00;;;2.30;99.90;;;;;;4941179;29;20498;-75
2024/01/08 13:36:21;;;;;;;14.02;3.10;;;2.70;99.90;;;;;;4958432;29;20046;-74
2024/01/08 13:38:47;;;;;;;7.03;2.78;;;3.00;99.90;;;;;;4958572;29;20038;-75
2024/01/08 13:41:13;;;;;;;6.63;2.65;;;3.00;99.90;;;;;;4958266;29;20495;-76
2024/01/08 13:43:38;;;;;;;7.88;3.20;;;3.10;99.90;;;;;;4941280;29;20130;-76
2024/01/08 13:46:04;;;;;;;5.63;2.92;;;3.00;99.90;;;;;;4958455;29;20046;-75
2024/01/08 13:48:30;;;;;;;7.40;3.05;;;3.00;99.90;;;;;;4958340;29;20035;-75
2024/01/08 13:50:56;;;;;;;6.15;2.90;;;3.20;99.90;;;;;;4941382;29;20118;-76
2024/01/08 13:53:22;;;;;;;6.28;3.20;;;3.30;99.90;;;;;;4958494;29;20083;-76
2024/01/08 13:55:47;;;;;;;8.25;3.22;;;3.50;99.90;;;;;;4958147;29;20050;-75
2024/01/08 13:58:13;;;;;;;6.72;3.13;;;3.40;99.90;;;;;;4940619;29;20166;-76
2024/01/08 14:00:40;;;;;;;6.03;2.85;;;3.20;99.90;;;;;;4940718;29;20404;-75
2024/01/08 14:03:05;;;;;;;5.90;2.90;;;3.10;99.90;;;;;;4940749;29;20057;-75
2024/01/08 14:05:32;;;;;;;6.05;2.95;;;2.90;99.90;;;;;;4957749;29;20114;-76
2024/01/08 14:07:58;;;;;;;7.25;3.20;;;2.80;99.90;;;;;;4940479;29;20133;-75
2024/01/08 14:10:24;;;;;;;10.88;3.83;;;2.70;99.90;;;;;;4957583;29;20126;-74
2024/01/08 14:12:50;;;;;;;7.93;3.35;;;2.90;99.90;;;;;;4940840;29;20051;-76
2024/01/08 14:15:19;;;;;;;9.20;3.65;;;3.30;99.90;;;;;;4957668;29;20488;-77
2024/01/08 14:17:44;;;;;;;7.78;3.75;;;3.50;99.90;;;;;;4957438;29;20090;-75
2024/01/08 14:20:11;;;;;;;6.60;3.30;;;3.50;99.90;;;;;;4957800;29;20031;-77
2024/01/08 14:22:38;;;;;;;8.57;3.63;;;3.60;99.90;;;;;;4940281;29;20384;-75
2024/01/08 14:25:04;;;;;;;5.40;3.20;;;3.50;99.90;;;;;;4940195;29;20047;-75
2024/01/08 14:27:30;;;;;;;6.72;3.40;;;3.50;99.90;;;;;;4958153;29;20039;-76
2024/01/08 14:29:56;;;;;;;6.20;3.33;;;3.30;99.90;;;;;;4957897;29;20197;-77
2024/01/08 14:32:22;;;;;;;6.70;3.55;;;3.20;99.90;;;;;;4939449;29;20046;-78
2024/01/08 14:34:48;;;;;;;7.25;3.63;;;3.10;99.90;;;;;;4957211;29;20035;-75
2024/01/08 14:37:13;;;;;;;8.65;3.65;;;2.70;99.90;;;;;;4940116;29;20047;-76
2024/01/08 14:39:39;;;;;;;6.93;3.03;;;2.30;99.90;;;;;;4957514;29;20050;-75
2024/01/08 14:42:05;;;;;;;7.75;3.30;;;1.90;99.90;;;;;;4957299;29;20484;-76
2024/01/08 14:44:31;;;;;;;6.85;2.95;;;1.60;99.90;;;;;;4939864;29;20043;-75
2024/01/08 14:46:56;;;;;;;6.47;3.28;;;1.40;99.90;;;;;;4939749;29;20047;-77
2024/01/08 14:49:22;;;;;;;5.85;3.03;;;1.20;99.90;;;;;;4939761;29;20065;-75
2024/01/08 14:51:48;;;;;;;7.65;3.10;;;1.00;99.90;;;;;;4957136;29;20051;-74
2024/01/08 14:54:14;;;;;;;6.85;3.10;;;0.90;99.90;;;;;;4939725;29;20492;-74
2024/01/08 14:56:39;;;;;;;8.27;3.25;;;0.80;99.90;;;;;;4957295;29;20047;-75
2024/01/08 14:59:05;;;;;;;7.13;3.15;;;0.70;99.90;;;;;;4939833;29;20051;-76
2024/01/08 15:01:32;;;;;;;6.97;3.33;;;0.60;99.90;;;;;;4939882;29;20424;-75
2024/01/08 15:03:59;;;;;;;7.03;3.20;;;0.50;99.90;;;;;;4939916;29;20098;-75
2024/01/08 15:06:25;;;;;;;6.70;3.00;;;0.40;99.90;;;;;;4939717;29;20495;-74
2024/01/08 15:08:51;;;;;;;7.15;3.50;;;0.40;99.90;;;;;;4939668;29;20055;-76
2024/01/08 15:11:17;;;;;;;7.25;3.25;;;0.30;99.90;;;;;;4957093;29;20046;-75
2024/01/08 15:13:43;;;;;;;7.78;2.88;;;0.20;99.90;;;;;;4957266;29;20047;-76
2024/01/08 15:16:10;;;;;;;7.57;3.78;;;0.10;99.90;;;;;;4939620;29;20043;-76
2024/01/08 15:18:36;;;;;;;6.07;2.58;;;0.00;99.90;;;;;;4939647;29;20390;-74
2024/01/08 15:21:05;;;;;;;9.05;3.50;;;0.00;99.90;;;;;;4956389;29;20039;-75
2024/01/08 15:23:33;;;;;;;7.65;3.58;;;-0.10;99.90;;;;;;4939627;29;20131;-77
2024/01/08 15:25:59;;;;;;;9.77;3.55;;;-0.10;99.90;;;;;;4957058;29;20046;-79
2024/01/08 15:28:26;;;;;;;12.35;3.63;;;-0.20;99.90;;;;;;4956214;29;20522;-74
2024/01/08 15:30:54;;;;;;;8.93;3.75;;;-0.20;99.90;;;;;;4923179;29;20047;-75
2024/01/08 15:33:19;;;;;;;9.70;3.50;;;-0.20;99.90;;;;;;4938971;29;20047;-77
2024/01/08 15:35:45;;;;;;;7.28;3.22;;;-0.30;99.90;;;;;;4956211;29;20050;-76
2024/01/08 15:38:11;;;;;;;8.50;3.05;;;-0.30;99.90;;;;;;4956291;29;20098;-75
2024/01/08 15:40:37;;;;;;;7.63;3.40;;;-0.30;99.90;;;;;;4938755;29;20051;-76
2024/01/08 15:43:03;;;;;;;7.13;3.10;;;-0.40;99.90;;;;;;4955735;28;20035;-77
2024/01/08 15:45:29;;;;;;;7.95;3.38;;;-0.40;99.90;;;;;;4956154;29;20571;-75
2024/01/08 15:47:55;;;;;;;7.97;3.45;;;-0.40;99.90;;;;;;4956393;29;20043;-74
2024/01/08 15:50:21;;;;;;;8.88;4.05;;;-0.40;99.90;;;;;;4956315;29;20499;-73
2024/01/08 15:52:46;;;;;;;11.57;3.60;;;-0.50;99.90;;;;;;4938908;29;20046;-76
2024/01/08 15:55:12;;;;;;;10.32;4.35;;;-0.50;99.90;;;;;;4938626;29;20054;-77
2024/01/08 15:57:38;;;;;;;7.53;3.33;;;-0.50;99.90;;;;;;4938872;29;20046;-73
2024/01/08 16:00:04;;;;;;;8.77;3.67;;;-0.50;99.90;;;;;;4939011;29;20432;-76
2024/01/08 16:02:31;;;;;;;7.97;3.53;;;-0.50;99.90;;;;;;4955849;29;20037;-77
2024/01/08 16:04:57;;;;;;;6.72;3.15;;;-0.50;99.90;;;;;;4956377;29;20168;-78
2024/01/08 16:07:23;;;;;;;6.95;3.42;;;-0.50;99.90;;;;;;4938713;29;20083;-75
2024/01/08 16:09:49;;;;;;;9.40;3.10;;;-0.60;99.90;;;;;;4955900;29;20043;-75
2024/01/08 16:12:15;;;;;;;8.35;4.00;;;-0.60;99.90;;;;;;4938455;29;20151;-76
2024/01/08 16:14:40;;;;;;;9.13;4.03;;;-0.60;99.90;;;;;;4938402;29;20085;-77
2024/01/08 16:17:06;;;;;;;8.38;3.47;;;-0.60;99.90;;;;;;4938131;29;20043;-76
2024/01/08 16:19:32;;;;;;;6.90;3.45;;;-0.70;99.90;;;;;;4955513;29;20039;-76
2024/01/08 16:21:57;;;;;;;8.57;3.67;;;-0.70;99.90;;;;;;4955244;29;20075;-75
2024/01/08 16:24:23;;;;;;;7.38;3.70;;;-0.70;99.90;;;;;;4955966;29;20070;-75
2024/01/08 16:26:49;;;;;;;9.13;3.85;;;-0.70;99.90;;;;;;4938150;29;20039;-76
2024/01/08 16:29:14;;;;;;;9.07;4.15;;;-0.70;99.90;;;;;;4922336;29;20039;-78
2024/01/08 16:31:40;;;;;;;8.60;4.10;;;-0.70;99.90;;;;;;4955503;29;20042;-77
2024/01/08 16:34:06;;;;;;;8.85;4.18;;;-0.70;99.90;;;;;;4955359;29;20220;-78
2024/01/08 16:36:31;;;;;;;8.57;4.15;;;-0.80;99.90;;;;;;4937965;29;20076;-76
2024/01/08 16:38:58;;;;;;;9.65;4.00;;;-0.70;99.90;;;;;;4937958;29;20122;-76
2024/01/08 16:41:23;;;;;;;7.63;3.78;;;-0.80;99.90;;;;;;4937885;29;20043;-77
2024/01/08 16:43:49;;;;;;;8.93;4.07;;;-0.80;99.90;;;;;;4937983;29;20385;-74
2024/01/08 16:46:15;;;;;;;11.77;4.13;;;-0.80;99.90;;;;;;4938278;29;20043;-78
2024/01/08 16:48:40;;;;;;;8.73;3.70;;;-0.80;99.90;;;;;;4955416;29;20395;-77
2024/01/08 16:51:06;;;;;;;13.15;4.43;;;-0.80;99.90;;;;;;4938257;29;20046;-77
2024/01/08 16:53:32;;;;;;;7.72;3.63;;;-0.80;99.90;;;;;;4955319;29;20039;-76